TAF Text Data
IDs:
Format:
Raw Decoded Include METAR

Data at: 1059 UTC 23 Jun 2021

KPSM 230855Z 2309/2406 28008KT P6SM FEW030 SCT070 BKN200
  FM231700 23012KT P6SM FEW250
  FM240000 18004KT P6SM SCT250